Chicago, IL (60641)

12:53 PM CDT on July 28, 2016 (GMT -0500)
Belmont Gardens | | Change Station

Elev 614 ft 41.94 °N, 87.73 °W | Updated 5 seconds ago

Overcast
Overcast
82.6 °F
Feels Like 87 °F
N
0.0
Wind Variable Wind from SSE
Gusts 0.0 mph

Today
High -- | Low -- °F
--% Chance of Precip.
Yesterday
High -- | Low -- °F
Precip. -- in
Pressure 29.88 in
Visibility 3.0 miles
Clouds Few 2800 ft
Mostly Cloudy 5000 ft
Overcast 9000 ft
Heat Index 87 °F
Dew Point 70 °F
Humidity 66%
Rainfall 0.00 in
Snow Depth Not available.
5:41 AM 8:13 PM
Waning Crescent, 30% visible
METAR KORD 281751Z 17007KT 3SM R10L/3500VP6000FT +TSRA BR FEW028 BKN050CB OVC090 23/22 A2989 RMK AO2 RAB15 TSB22 SLP117 OCNL LTGCGCC OHD TS OHD MOV E P0032 60032 T02330217 10289 20233 55003
Pressure 29.88 in
Visibility 3.0 miles
Clouds Few 2800 ft
Mostly Cloudy 5000 ft
Overcast 9000 ft
Heat Index 87 °F
Dew Point 70 °F
Humidity 66%
Rainfall 0.00 in
Snow Depth Not available.
5:41 AM 8:13 PM
Waning Crescent, 30% visible
METAR KORD 281751Z 17007KT 3SM R10L/3500VP6000FT +TSRA BR FEW028 BKN050CB OVC090 23/22 A2989 RMK AO2 RAB15 TSB22 SLP117 OCNL LTGCGCC OHD TS OHD MOV E P0032 60032 T02330217 10289 20233 55003

10-Day Weather Forecast

Almanac

Astronomy

Jul. 28, 2016 Rise Set
Actual Time
Civil Twilight
Nautical Twilight
Astronomical Twilight
Moon
Length of Visible Light
Length of Day
Tomorrow will be .
, % of the Moon is Illuminated

Today's Extremes

State Highs State Lows

Community

WunderPhotos

Upload Photos

1,928,163 photos uploaded!

WunderBlog® & News

Nearby

Air Quality

  Air Quality AQ Index Pollutant
Not available.

Snow Depth

Station Depth Elevation

Earthquake Activity

City Distance Mag. Time & Date
Minimum magnitude displayed is 2.5.

Coastal Water Temperatures

Place Temperature

Stations

Nearby Weather Stations

Station Location Temp. Windchill Dew Point Humidity Wind Precip. Elev Updated Type
                   

Watches & Warnings

There are currently no watches in effect.